sensor_id;sensor_type;location;lat;lon;timestamp;pressure;altitude;pressure_sealevel;temperature;humidity
43147;BME280;28752;48.266;7.402;2022-09-28T00:00:31;97732.13;;;10.14;100.00
43147;BME280;28752;48.266;7.402;2022-09-28T00:02:57;97753.47;;;10.28;100.00
43147;BME280;28752;48.266;7.402;2022-09-28T00:05:23;97740.66;;;10.31;100.00
43147;BME280;28752;48.266;7.402;2022-09-28T00:07:54;97726.16;;;10.27;100.00
43147;BME280;28752;48.266;7.402;2022-09-28T00:10:21;97721.72;;;10.28;100.00
43147;BME280;28752;48.266;7.402;2022-09-28T00:12:48;97735.47;;;10.38;100.00
43147;BME280;28752;48.266;7.402;2022-09-28T00:15:15;97695.72;;;10.17;100.00
43147;BME280;28752;48.266;7.402;2022-09-28T00:17:40;97682.31;;;10.18;100.00
43147;BME280;28752;48.266;7.402;2022-09-28T00:20:07;97715.53;;;10.36;100.00
43147;BME280;28752;48.266;7.402;2022-09-28T00:22:33;97709.03;;;10.38;100.00
43147;BME280;28752;48.266;7.402;2022-09-28T00:24:59;97707.59;;;10.36;100.00
43147;BME280;28752;48.266;7.402;2022-09-28T00:27:24;97697.63;;;10.38;100.00
43147;BME280;28752;48.266;7.402;2022-09-28T00:29:49;97680.28;;;10.35;100.00
43147;BME280;28752;48.266;7.402;2022-09-28T00:32:15;97700.34;;;10.44;100.00
43147;BME280;28752;48.266;7.402;2022-09-28T00:34:42;97694.03;;;10.45;100.00
43147;BME280;28752;48.266;7.402;2022-09-28T00:37:11;97684.69;;;10.28;100.00
43147;BME280;28752;48.266;7.402;2022-09-28T00:39:37;97692.16;;;10.39;100.00
43147;BME280;28752;48.266;7.402;2022-09-28T00:42:25;97680.75;;;10.39;100.00
43147;BME280;28752;48.266;7.402;2022-09-28T00:44:52;97665.69;;;10.39;100.00
43147;BME280;28752;48.266;7.402;2022-09-28T00:52:31;97666.13;;;10.43;100.00
43147;BME280;28752;48.266;7.402;2022-09-28T00:55:01;97647.41;;;10.44;100.00
43147;BME280;28752;48.266;7.402;2022-09-28T00:57:28;97649.88;;;10.46;100.00
43147;BME280;28752;48.266;7.402;2022-09-28T00:59:54;97661.91;;;10.48;100.00
43147;BME280;28752;48.266;7.402;2022-09-28T01:02:20;97634.69;;;10.33;100.00
43147;BME280;28752;48.266;7.402;2022-09-28T01:04:47;97630.69;;;10.37;100.00
43147;BME280;28752;48.266;7.402;2022-09-28T01:07:14;97649.06;;;10.45;100.00
43147;BME280;28752;48.266;7.402;2022-09-28T01:09:40;97647.69;;;10.49;100.00
43147;BME280;28752;48.266;7.402;2022-09-28T01:12:06;97616.03;;;10.41;100.00
43147;BME280;28752;48.266;7.402;2022-09-28T01:14:32;97604.75;;;10.32;100.00
43147;BME280;28752;48.266;7.402;2022-09-28T01:17:21;97612.03;;;10.45;100.00
43147;BME280;28752;48.266;7.402;2022-09-28T01:20:18;97613.91;;;10.52;100.00
43147;BME280;28752;48.266;7.402;2022-09-28T01:28:24;97596.97;;;10.46;100.00
43147;BME280;28752;48.266;7.402;2022-09-28T01:31:13;97608.19;;;10.48;100.00
43147;BME280;28752;48.266;7.402;2022-09-28T01:33:44;97598.22;;;10.50;100.00
43147;BME280;28752;48.266;7.402;2022-09-28T01:36:18;97587.63;;;10.50;100.00
43147;BME280;28752;48.266;7.402;2022-09-28T01:38:55;97580.66;;;10.42;100.00
43147;BME280;28752;48.266;7.402;2022-09-28T01:41:25;97576.63;;;10.46;100.00
43147;BME280;28752;48.266;7.402;2022-09-28T01:43:55;97584.81;;;10.52;100.00
43147;BME280;28752;48.266;7.402;2022-09-28T01:46:26;97581.59;;;10.56;100.00
43147;BME280;28752;48.266;7.402;2022-09-28T01:48:57;97572.25;;;10.60;100.00
43147;BME280;28752;48.266;7.402;2022-09-28T01:51:42;97573.44;;;10.58;100.00
43147;BME280;28752;48.266;7.402;2022-09-28T01:54:36;97576.28;;;10.56;100.00
43147;BME280;28752;48.266;7.402;2022-09-28T01:57:10;97573.44;;;10.58;100.00
43147;BME280;28752;48.266;7.402;2022-09-28T01:59:44;97574.53;;;10.63;100.00
43147;BME280;28752;48.266;7.402;2022-09-28T02:02:16;97554.03;;;10.51;100.00
43147;BME280;28752;48.266;7.402;2022-09-28T02:04:48;97561.44;;;10.55;100.00
43147;BME280;28752;48.266;7.402;2022-09-28T02:09:47;97554.31;;;10.56;100.00
43147;BME280;28752;48.266;7.402;2022-09-28T02:12:26;97550.66;;;10.57;100.00
43147;BME280;28752;48.266;7.402;2022-09-28T02:15:00;97535.34;;;10.52;100.00
43147;BME280;28752;48.266;7.402;2022-09-28T02:17:30;97543.34;;;10.59;100.00
43147;BME280;28752;48.266;7.402;2022-09-28T02:19:56;97542.16;;;10.61;100.00
43147;BME280;28752;48.266;7.402;2022-09-28T02:22:28;97529.88;;;10.54;100.00
43147;BME280;28752;48.266;7.402;2022-09-28T02:24:58;97527.84;;;10.56;100.00
43147;BME280;28752;48.266;7.402;2022-09-28T02:27:36;97519.66;;;10.51;100.00
43147;BME280;28752;48.266;7.402;2022-09-28T02:30:05;97520.91;;;10.55;100.00
43147;BME280;28752;48.266;7.402;2022-09-28T02:32:32;97528.22;;;10.53;100.00
43147;BME280;28752;48.266;7.402;2022-09-28T02:34:59;97516.19;;;10.50;100.00
43147;BME280;28752;48.266;7.402;2022-09-28T02:37:26;97519.28;;;10.54;100.00
43147;BME280;28752;48.266;7.402;2022-09-28T02:39:52;97531.50;;;10.55;100.00
43147;BME280;28752;48.266;7.402;2022-09-28T02:42:25;97527.41;;;10.52;100.00
43147;BME280;28752;48.266;7.402;2022-09-28T02:53:20;97505.91;;;10.62;100.00
43147;BME280;28752;48.266;7.402;2022-09-28T02:56:13;97505.50;;;10.65;100.00
43147;BME280;28752;48.266;7.402;2022-09-28T03:06:59;97528.34;;;10.66;100.00
43147;BME280;28752;48.266;7.402;2022-09-28T03:09:36;97529.34;;;10.65;100.00
43147;BME280;28752;48.266;7.402;2022-09-28T03:12:10;97512.84;;;10.63;100.00
43147;BME280;28752;48.266;7.402;2022-09-28T03:14:37;97497.94;;;10.55;100.00
43147;BME280;28752;48.266;7.402;2022-09-28T03:17:03;97502.25;;;10.63;100.00
43147;BME280;28752;48.266;7.402;2022-09-28T03:19:33;97494.31;;;10.63;100.00
43147;BME280;28752;48.266;7.402;2022-09-28T03:21:58;97508.16;;;10.65;100.00
43147;BME280;28752;48.266;7.402;2022-09-28T03:24:24;97508.56;;;10.62;100.00
43147;BME280;28752;48.266;7.402;2022-09-28T03:26:50;97486.66;;;10.46;100.00
43147;BME280;28752;48.266;7.402;2022-09-28T03:29:15;97521.00;;;10.68;100.00
43147;BME280;28752;48.266;7.402;2022-09-28T03:31:41;97518.38;;;10.68;100.00
43147;BME280;28752;48.266;7.402;2022-09-28T03:34:08;97521.63;;;10.70;100.00
43147;BME280;28752;48.266;7.402;2022-09-28T03:36:33;97512.50;;;10.73;100.00
43147;BME280;28752;48.266;7.402;2022-09-28T03:38:59;97524.53;;;10.75;100.00
43147;BME280;28752;48.266;7.402;2022-09-28T03:41:24;97510.84;;;10.72;100.00
43147;BME280;28752;48.266;7.402;2022-09-28T03:43:52;97518.97;;;10.70;100.00
43147;BME280;28752;48.266;7.402;2022-09-28T03:46:18;97517.38;;;10.69;100.00
43147;BME280;28752;48.266;7.402;2022-09-28T03:48:43;97516.97;;;10.72;100.00
43147;BME280;28752;48.266;7.402;2022-09-28T03:51:09;97513.09;;;10.75;100.00
43147;BME280;28752;48.266;7.402;2022-09-28T03:53:35;97514.72;;;10.69;100.00
43147;BME280;28752;48.266;7.402;2022-09-28T03:56:06;97512.88;;;10.70;100.00
43147;BME280;28752;48.266;7.402;2022-09-28T03:58:32;97489.41;;;10.60;100.00
43147;BME280;28752;48.266;7.402;2022-09-28T04:01:05;97502.28;;;10.70;100.00
43147;BME280;28752;48.266;7.402;2022-09-28T04:03:32;97505.94;;;10.69;100.00
43147;BME280;28752;48.266;7.402;2022-09-28T04:05:57;97518.00;;;10.78;100.00
43147;BME280;28752;48.266;7.402;2022-09-28T04:08:23;97522.06;;;10.74;100.00
43147;BME280;28752;48.266;7.402;2022-09-28T04:10:49;97498.38;;;10.65;100.00
43147;BME280;28752;48.266;7.402;2022-09-28T04:13:14;97528.19;;;10.74;100.00
43147;BME280;28752;48.266;7.402;2022-09-28T04:15:41;97544.06;;;10.74;100.00
43147;BME280;28752;48.266;7.402;2022-09-28T04:18:11;97537.38;;;10.78;100.00
43147;BME280;28752;48.266;7.402;2022-09-28T04:20:39;97529.56;;;10.70;100.00
43147;BME280;28752;48.266;7.402;2022-09-28T04:23:10;97518.38;;;10.68;100.00
43147;BME280;28752;48.266;7.402;2022-09-28T04:25:35;97517.59;;;10.74;100.00
43147;BME280;28752;48.266;7.402;2022-09-28T04:28:01;97528.75;;;10.70;100.00
43147;BME280;28752;48.266;7.402;2022-09-28T04:30:49;97541.41;;;10.74;100.00
43147;BME280;28752;48.266;7.402;2022-09-28T04:33:14;97536.69;;;10.70;100.00
43147;BME280;28752;48.266;7.402;2022-09-28T04:35:40;97535.25;;;10.67;100.00
43147;BME280;28752;48.266;7.402;2022-09-28T04:38:05;97536.09;;;10.68;100.00
43147;BME280;28752;48.266;7.402;2022-09-28T04:40:31;97516.47;;;10.55;100.00
43147;BME280;28752;48.266;7.402;2022-09-28T04:42:56;97539.50;;;10.61;100.00
43147;BME280;28752;48.266;7.402;2022-09-28T04:45:22;97537.66;;;10.62;100.00
43147;BME280;28752;48.266;7.402;2022-09-28T04:47:50;97532.59;;;10.67;100.00
43147;BME280;28752;48.266;7.402;2022-09-28T04:50:15;97550.53;;;10.72;100.00
43147;BME280;28752;48.266;7.402;2022-09-28T04:52:41;97552.78;;;10.68;100.00
43147;BME280;28752;48.266;7.402;2022-09-28T04:55:10;97551.50;;;10.64;100.00
43147;BME280;28752;48.266;7.402;2022-09-28T04:57:35;97551.13;;;10.67;100.00
43147;BME280;28752;48.266;7.402;2022-09-28T05:00:01;97544.34;;;10.58;100.00
43147;BME280;28752;48.266;7.402;2022-09-28T05:02:27;97542.28;;;10.53;100.00
43147;BME280;28752;48.266;7.402;2022-09-28T05:04:53;97549.41;;;10.53;100.00
43147;BME280;28752;48.266;7.402;2022-09-28T05:07:20;97542.03;;;10.48;100.00
43147;BME280;28752;48.266;7.402;2022-09-28T05:09:46;97532.41;;;10.40;100.00
43147;BME280;28752;48.266;7.402;2022-09-28T05:12:12;97561.19;;;10.50;100.00
43147;BME280;28752;48.266;7.402;2022-09-28T05:14:38;97568.31;;;10.49;100.00
43147;BME280;28752;48.266;7.402;2022-09-28T05:17:03;97554.50;;;10.54;98.43
43147;BME280;28752;48.266;7.402;2022-09-28T05:19:29;97551.69;;;10.62;97.93
43147;BME280;28752;48.266;7.402;2022-09-28T05:21:54;97560.78;;;10.53;99.48
43147;BME280;28752;48.266;7.402;2022-09-28T05:24:22;97575.78;;;10.46;100.00
43147;BME280;28752;48.266;7.402;2022-09-28T05:26:48;97567.28;;;10.51;95.27
43147;BME280;28752;48.266;7.402;2022-09-28T05:29:13;97571.19;;;10.55;95.50
43147;BME280;28752;48.266;7.402;2022-09-28T05:31:39;97573.22;;;10.53;94.59
43147;BME280;28752;48.266;7.402;2022-09-28T05:34:04;97572.22;;;10.54;96.48
43147;BME280;28752;48.266;7.402;2022-09-28T05:36:30;97584.81;;;10.52;94.35
43147;BME280;28752;48.266;7.402;2022-09-28T05:38:56;97583.63;;;10.54;97.36
43147;BME280;28752;48.266;7.402;2022-09-28T05:41:21;97582.84;;;10.60;92.31
43147;BME280;28752;48.266;7.402;2022-09-28T05:43:47;97585.06;;;10.57;97.96
43147;BME280;28752;48.266;7.402;2022-09-28T05:46:12;97585.00;;;10.50;96.21
43147;BME280;28752;48.266;7.402;2022-09-28T05:48:38;97574.19;;;10.45;96.60
43147;BME280;28752;48.266;7.402;2022-09-28T05:51:04;97595.28;;;10.60;97.10
43147;BME280;28752;48.266;7.402;2022-09-28T05:53:29;97587.53;;;10.58;94.04
43147;BME280;28752;48.266;7.402;2022-09-28T05:55:58;97586.56;;;10.66;92.08
43147;BME280;28752;48.266;7.402;2022-09-28T05:58:23;97583.91;;;10.66;93.47
43147;BME280;28752;48.266;7.402;2022-09-28T06:00:56;97569.53;;;10.75;91.90
43147;BME280;28752;48.266;7.402;2022-09-28T06:03:21;97564.94;;;10.62;94.51
43147;BME280;28752;48.266;7.402;2022-09-28T06:05:47;97587.28;;;10.81;90.20
43147;BME280;28752;48.266;7.402;2022-09-28T06:08:13;97586.84;;;10.78;91.99
43147;BME280;28752;48.266;7.402;2022-09-28T06:10:38;97585.25;;;10.83;91.96
43147;BME280;28752;48.266;7.402;2022-09-28T06:13:04;97584.00;;;10.79;91.21
43147;BME280;28752;48.266;7.402;2022-09-28T06:15:32;97598.44;;;10.77;89.96
43147;BME280;28752;48.266;7.402;2022-09-28T06:18:04;97602.28;;;10.74;87.05
43147;BME280;28752;48.266;7.402;2022-09-28T06:20:33;97590.25;;;10.72;88.77
43147;BME280;28752;48.266;7.402;2022-09-28T06:22:59;97600.47;;;10.75;87.61
43147;BME280;28752;48.266;7.402;2022-09-28T06:25:24;97597.22;;;10.79;86.38
43147;BME280;28752;48.266;7.402;2022-09-28T06:28:03;97609.09;;;10.83;85.44
43147;BME280;28752;48.266;7.402;2022-09-28T06:30:30;97589.63;;;10.70;85.94
43147;BME280;28752;48.266;7.402;2022-09-28T06:32:57;97599.94;;;10.86;82.63
43147;BME280;28752;48.266;7.402;2022-09-28T06:35:25;97626.91;;;10.96;84.45
43147;BME280;28752;48.266;7.402;2022-09-28T06:37:51;97611.53;;;10.85;85.70
43147;BME280;28752;48.266;7.402;2022-09-28T06:40:17;97610.72;;;10.84;84.86
43147;BME280;28752;48.266;7.402;2022-09-28T06:42:43;97619.28;;;10.87;84.39
43147;BME280;28752;48.266;7.402;2022-09-28T06:45:08;97609.63;;;10.72;85.42
43147;BME280;28752;48.266;7.402;2022-09-28T06:47:35;97641.25;;;10.80;87.45
43147;BME280;28752;48.266;7.402;2022-09-28T06:50:03;97620.25;;;10.79;86.88
43147;BME280;28752;48.266;7.402;2022-09-28T06:52:28;97633.16;;;10.89;84.72
43147;BME280;28752;48.266;7.402;2022-09-28T06:54:53;97636.28;;;10.99;87.22
43147;BME280;28752;48.266;7.402;2022-09-28T06:57:19;97637.13;;;10.99;84.86
43147;BME280;28752;48.266;7.402;2022-09-28T06:59:45;97643.03;;;11.01;87.42
43147;BME280;28752;48.266;7.402;2022-09-28T07:02:10;97653.66;;;11.08;86.08
43147;BME280;28752;48.266;7.402;2022-09-28T07:04:41;97649.81;;;11.11;84.15
43147;BME280;28752;48.266;7.402;2022-09-28T07:07:10;97645.50;;;11.03;82.68
43147;BME280;28752;48.266;7.402;2022-09-28T07:09:35;97661.47;;;11.16;84.21
43147;BME280;28752;48.266;7.402;2022-09-28T07:12:02;97671.69;;;11.19;85.34
43147;BME280;28752;48.266;7.402;2022-09-28T07:14:34;97676.56;;;11.16;84.04
43147;BME280;28752;48.266;7.402;2022-09-28T07:16:59;97653.94;;;11.13;81.81
43147;BME280;28752;48.266;7.402;2022-09-28T07:19:26;97668.75;;;11.36;80.30
43147;BME280;28752;48.266;7.402;2022-09-28T07:21:51;97668.31;;;11.32;82.35
43147;BME280;28752;48.266;7.402;2022-09-28T07:24:17;97674.28;;;11.41;83.04
43147;BME280;28752;48.266;7.402;2022-09-28T07:26:43;97677.75;;;11.42;81.80
43147;BME280;28752;48.266;7.402;2022-09-28T07:29:10;97685.50;;;11.43;84.13
43147;BME280;28752;48.266;7.402;2022-09-28T07:31:36;97691.06;;;11.48;84.87
43147;BME280;28752;48.266;7.402;2022-09-28T07:34:02;97692.34;;;11.59;78.82
43147;BME280;28752;48.266;7.402;2022-09-28T07:36:28;97702.97;;;11.66;79.46
43147;BME280;28752;48.266;7.402;2022-09-28T07:38:54;97686.63;;;11.55;79.86
43147;BME280;28752;48.266;7.402;2022-09-28T07:41:19;97706.09;;;11.76;80.68
43147;BME280;28752;48.266;7.402;2022-09-28T07:43:56;97695.41;;;11.63;79.83
43147;BME280;28752;48.266;7.402;2022-09-28T07:46:23;97705.41;;;11.67;84.29
43147;BME280;28752;48.266;7.402;2022-09-28T07:48:48;97722.31;;;11.60;83.77
43147;BME280;28752;48.266;7.402;2022-09-28T07:51:15;97729.88;;;11.63;82.80
43147;BME280;28752;48.266;7.402;2022-09-28T07:53:43;97719.31;;;11.69;85.21
43147;BME280;28752;48.266;7.402;2022-09-28T07:56:09;97723.19;;;11.73;85.99
43147;BME280;28752;48.266;7.402;2022-09-28T07:58:37;97733.41;;;11.77;86.07
43147;BME280;28752;48.266;7.402;2022-09-28T08:01:07;97740.22;;;11.86;86.71
43147;BME280;28752;48.266;7.402;2022-09-28T08:03:35;97736.94;;;11.84;88.07
43147;BME280;28752;48.266;7.402;2022-09-28T08:06:01;97742.81;;;11.79;84.83
43147;BME280;28752;48.266;7.402;2022-09-28T08:08:27;97739.38;;;11.85;84.51
43147;BME280;28752;48.266;7.402;2022-09-28T08:10:53;97747.22;;;11.94;84.50
43147;BME280;28752;48.266;7.402;2022-09-28T08:13:20;97741.53;;;11.97;84.17
43147;BME280;28752;48.266;7.402;2022-09-28T08:15:45;97759.13;;;12.11;84.66
43147;BME280;28752;48.266;7.402;2022-09-28T08:18:12;97745.72;;;12.19;83.36
43147;BME280;28752;48.266;7.402;2022-09-28T08:20:38;97736.53;;;12.22;83.55
43147;BME280;28752;48.266;7.402;2022-09-28T08:23:21;97740.81;;;12.16;82.91
43147;BME280;28752;48.266;7.402;2022-09-28T08:25:49;97758.81;;;12.21;83.34
43147;BME280;28752;48.266;7.402;2022-09-28T08:28:15;97746.13;;;12.16;80.64
43147;BME280;28752;48.266;7.402;2022-09-28T08:30:44;97760.19;;;12.17;84.33
43147;BME280;28752;48.266;7.402;2022-09-28T08:33:15;97756.75;;;12.23;85.06
43147;BME280;28752;48.266;7.402;2022-09-28T08:35:42;97763.63;;;12.11;83.83
43147;BME280;28752;48.266;7.402;2022-09-28T08:38:09;97767.66;;;12.00;83.22
43147;BME280;28752;48.266;7.402;2022-09-28T08:46:09;97783.81;;;12.05;81.06
43147;BME280;28752;48.266;7.402;2022-09-28T08:48:49;97777.72;;;12.11;82.09
43147;BME280;28752;48.266;7.402;2022-09-28T08:51:22;97778.09;;;12.01;83.30
43147;BME280;28752;48.266;7.402;2022-09-28T08:57:00;97775.78;;;12.33;84.99
43147;BME280;28752;48.266;7.402;2022-09-28T09:04:45;97779.72;;;12.44;80.03
43147;BME280;28752;48.266;7.402;2022-09-28T09:12:41;97789.53;;;12.50;79.87
43147;BME280;28752;48.266;7.402;2022-09-28T09:15:51;97789.53;;;12.50;80.74
43147;BME280;28752;48.266;7.402;2022-09-28T09:20:54;97790.16;;;12.52;82.55
43147;BME280;28752;48.266;7.402;2022-09-28T09:26:17;97799.88;;;12.93;82.03
43147;BME280;28752;48.266;7.402;2022-09-28T09:31:38;97817.16;;;13.38;79.36
43147;BME280;28752;48.266;7.402;2022-09-28T09:39:53;97798.53;;;13.84;75.08
43147;BME280;28752;48.266;7.402;2022-09-28T09:43:04;97792.78;;;14.08;73.84
43147;BME280;28752;48.266;7.402;2022-09-28T09:48:59;97788.00;;;14.16;68.95
43147;BME280;28752;48.266;7.402;2022-09-28T09:54:36;97795.41;;;14.14;73.83
43147;BME280;28752;48.266;7.402;2022-09-28T09:57:12;97798.84;;;14.28;73.98
43147;BME280;28752;48.266;7.402;2022-09-28T09:59:41;97788.00;;;14.23;72.68
43147;BME280;28752;48.266;7.402;2022-09-28T10:02:21;97808.44;;;14.43;70.97
43147;BME280;28752;48.266;7.402;2022-09-28T10:04:48;97786.72;;;14.39;71.63
43147;BME280;28752;48.266;7.402;2022-09-28T10:07:53;97798.75;;;14.62;72.15
43147;BME280;28752;48.266;7.402;2022-09-28T10:12:51;97810.06;;;14.44;71.85
43147;BME280;28752;48.266;7.402;2022-09-28T10:15:28;97801.81;;;14.65;70.49
43147;BME280;28752;48.266;7.402;2022-09-28T10:17:55;97801.19;;;14.70;70.95
43147;BME280;28752;48.266;7.402;2022-09-28T10:20:22;97802.09;;;14.89;70.36
43147;BME280;28752;48.266;7.402;2022-09-28T10:22:55;97794.59;;;14.79;68.18
43147;BME280;28752;48.266;7.402;2022-09-28T10:25:21;97787.91;;;14.56;63.20
43147;BME280;28752;48.266;7.402;2022-09-28T10:27:47;97794.75;;;14.84;65.79
43147;BME280;28752;48.266;7.402;2022-09-28T10:30:18;97797.63;;;14.89;66.28
43147;BME280;28752;48.266;7.402;2022-09-28T10:32:46;97798.38;;;14.97;67.86
43147;BME280;28752;48.266;7.402;2022-09-28T10:35:28;97802.69;;;14.98;67.87
43147;BME280;28752;48.266;7.402;2022-09-28T10:38:03;97792.72;;;14.80;67.85
43147;BME280;28752;48.266;7.402;2022-09-28T10:43:04;97794.47;;;14.61;68.45
43147;BME280;28752;48.266;7.402;2022-09-28T10:45:35;97794.44;;;14.67;66.38
43147;BME280;28752;48.266;7.402;2022-09-28T10:48:11;97796.09;;;14.62;68.92
43147;BME280;28752;48.266;7.402;2022-09-28T10:50:38;97798.47;;;14.77;66.96
43147;BME280;28752;48.266;7.402;2022-09-28T10:53:16;97799.66;;;14.87;69.83
43147;BME280;28752;48.266;7.402;2022-09-28T10:56:02;97791.44;;;14.89;68.82
43147;BME280;28752;48.266;7.402;2022-09-28T10:58:33;97789.69;;;14.76;70.69
43147;BME280;28752;48.266;7.402;2022-09-28T11:01:03;97796.88;;;14.69;70.06
43147;BME280;28752;48.266;7.402;2022-09-28T11:03:30;97801.16;;;14.77;69.01
43147;BME280;28752;48.266;7.402;2022-09-28T11:05:59;97795.19;;;14.81;70.99
43147;BME280;28752;48.266;7.402;2022-09-28T11:08:35;97786.59;;;14.79;71.67
43147;BME280;28752;48.266;7.402;2022-09-28T11:11:12;97770.19;;;14.75;71.23
43147;BME280;28752;48.266;7.402;2022-09-28T11:13:45;97776.66;;;14.93;69.98
43147;BME280;28752;48.266;7.402;2022-09-28T11:16:38;97779.50;;;14.98;70.93
43147;BME280;28752;48.266;7.402;2022-09-28T11:21:44;97769.97;;;14.84;67.78
43147;BME280;28752;48.266;7.402;2022-09-28T11:24:22;97779.56;;;14.91;69.15
43147;BME280;28752;48.266;7.402;2022-09-28T11:26:51;97789.22;;;14.86;70.33
43147;BME280;28752;48.266;7.402;2022-09-28T11:29:37;97790.28;;;14.78;69.25
43147;BME280;28752;48.266;7.402;2022-09-28T11:32:07;97795.00;;;14.76;69.66
43147;BME280;28752;48.266;7.402;2022-09-28T11:34:42;97790.09;;;14.73;69.71
43147;BME280;28752;48.266;7.402;2022-09-28T11:40:23;97782.66;;;14.82;69.44
43147;BME280;28752;48.266;7.402;2022-09-28T11:45:08;97777.91;;;14.90;68.69
43147;BME280;28752;48.266;7.402;2022-09-28T11:48:16;97758.19;;;14.98;69.55
43147;BME280;28752;48.266;7.402;2022-09-28T11:56:26;97774.38;;;14.97;75.49
43147;BME280;28752;48.266;7.402;2022-09-28T12:01:56;97770.09;;;14.96;76.49
43147;BME280;28752;48.266;7.402;2022-09-28T12:05:14;97772.16;;;14.93;75.92
43147;BME280;28752;48.266;7.402;2022-09-28T12:07:37;97768.69;;;14.93;75.02
43147;BME280;28752;48.266;7.402;2022-09-28T12:10:07;97764.50;;;15.04;75.34
43147;BME280;28752;48.266;7.402;2022-09-28T12:12:44;97761.47;;;15.00;75.50
43147;BME280;28752;48.266;7.402;2022-09-28T12:15:18;97759.56;;;15.07;76.55
43147;BME280;28752;48.266;7.402;2022-09-28T12:17:53;97770.84;;;15.03;75.82
43147;BME280;28752;48.266;7.402;2022-09-28T12:20:25;97764.72;;;15.02;75.80
43147;BME280;28752;48.266;7.402;2022-09-28T12:25:24;97763.78;;;15.15;75.28
43147;BME280;28752;48.266;7.402;2022-09-28T12:28:06;97768.75;;;15.12;76.21
43147;BME280;28752;48.266;7.402;2022-09-28T12:30:37;97766.25;;;15.17;75.09
43147;BME280;28752;48.266;7.402;2022-09-28T12:33:10;97772.56;;;15.22;74.25
43147;BME280;28752;48.266;7.402;2022-09-28T12:52:17;97762.34;;;15.19;73.00
43147;BME280;28752;48.266;7.402;2022-09-28T12:58:03;97769.53;;;15.19;73.69
43147;BME280;28752;48.266;7.402;2022-09-28T13:00:36;97767.47;;;15.21;73.07
43147;BME280;28752;48.266;7.402;2022-09-28T13:06:35;97769.34;;;15.14;71.71
43147;BME280;28752;48.266;7.402;2022-09-28T13:09:20;97773.50;;;15.09;71.50
43147;BME280;28752;48.266;7.402;2022-09-28T13:14:44;97770.31;;;15.26;70.30
43147;BME280;28752;48.266;7.402;2022-09-28T13:25:38;97762.81;;;15.41;68.82
43147;BME280;28752;48.266;7.402;2022-09-28T13:28:05;97768.72;;;15.43;68.77
43147;BME280;28752;48.266;7.402;2022-09-28T13:30:33;97770.31;;;15.26;69.51
43147;BME280;28752;48.266;7.402;2022-09-28T13:33:01;97760.41;;;15.01;70.16
43147;BME280;28752;48.266;7.402;2022-09-28T13:35:28;97761.34;;;15.14;71.24
43147;BME280;28752;48.266;7.402;2022-09-28T13:43:36;97763.34;;;15.25;70.27
43147;BME280;28752;48.266;7.402;2022-09-28T13:46:24;97761.19;;;15.08;69.20
43147;BME280;28752;48.266;7.402;2022-09-28T13:48:58;97759.38;;;15.02;69.57
43147;BME280;28752;48.266;7.402;2022-09-28T13:51:40;97765.53;;;15.03;69.33
43147;BME280;28752;48.266;7.402;2022-09-28T13:57:14;97757.44;;;14.91;70.40
43147;BME280;28752;48.266;7.402;2022-09-28T14:05:02;97761.63;;;15.05;68.18
43147;BME280;28752;48.266;7.402;2022-09-28T14:10:19;97770.97;;;15.21;68.68
43147;BME280;28752;48.266;7.402;2022-09-28T14:12:48;97774.16;;;15.30;68.34
43147;BME280;28752;48.266;7.402;2022-09-28T14:20:21;97764.56;;;15.22;68.98
43147;BME280;28752;48.266;7.402;2022-09-28T14:25:26;97773.06;;;15.13;68.93
43147;BME280;28752;48.266;7.402;2022-09-28T14:35:58;97776.63;;;15.00;69.77
43147;BME280;28752;48.266;7.402;2022-09-28T14:38:43;97786.53;;;14.86;69.06
43147;BME280;28752;48.266;7.402;2022-09-28T14:41:38;97788.19;;;14.87;69.65
43147;BME280;28752;48.266;7.402;2022-09-28T14:44:07;97789.41;;;14.84;68.69
43147;BME280;28752;48.266;7.402;2022-09-28T14:46:46;97790.06;;;14.80;69.22
43147;BME280;28752;48.266;7.402;2022-09-28T14:54:17;97778.59;;;14.79;68.25
43147;BME280;28752;48.266;7.402;2022-09-28T14:59:31;97779.56;;;14.85;69.83
43147;BME280;28752;48.266;7.402;2022-09-28T15:02:21;97782.66;;;14.82;69.72
43147;BME280;28752;48.266;7.402;2022-09-28T15:05:37;97792.34;;;14.76;70.36
43147;BME280;28752;48.266;7.402;2022-09-28T15:07:47;97786.38;;;14.81;69.62
43147;BME280;28752;48.266;7.402;2022-09-28T15:12:46;97791.34;;;14.70;68.66
43147;BME280;28752;48.266;7.402;2022-09-28T15:15:37;97788.25;;;14.73;70.05
43147;BME280;28752;48.266;7.402;2022-09-28T15:20:34;97781.38;;;14.46;70.67
43147;BME280;28752;48.266;7.402;2022-09-28T15:23:00;97779.31;;;14.61;71.78
43147;BME280;28752;48.266;7.402;2022-09-28T15:25:28;97762.75;;;14.46;70.86
43147;BME280;28752;48.266;7.402;2022-09-28T15:27:56;97780.75;;;14.44;71.00
43147;BME280;28752;48.266;7.402;2022-09-28T15:32:50;97790.63;;;14.36;70.88
43147;BME280;28752;48.266;7.402;2022-09-28T15:35:20;97798.63;;;14.30;71.92
43147;BME280;28752;48.266;7.402;2022-09-28T15:37:47;97793.34;;;14.23;71.67
43147;BME280;28752;48.266;7.402;2022-09-28T15:40:17;97800.13;;;14.12;73.01
43147;BME280;28752;48.266;7.402;2022-09-28T15:42:45;97807.06;;;14.13;73.31
43147;BME280;28752;48.266;7.402;2022-09-28T15:45:25;97803.38;;;14.14;73.92
43147;BME280;28752;48.266;7.402;2022-09-28T15:47:53;97797.50;;;13.99;74.75
43147;BME280;28752;48.266;7.402;2022-09-28T15:50:25;97806.88;;;14.08;75.63
43147;BME280;28752;48.266;7.402;2022-09-28T15:52:53;97808.94;;;13.99;76.69
43147;BME280;28752;48.266;7.402;2022-09-28T15:55:29;97808.34;;;13.84;78.52
43147;BME280;28752;48.266;7.402;2022-09-28T16:00:44;97810.41;;;13.82;80.08
43147;BME280;28752;48.266;7.402;2022-09-28T16:05:45;97808.59;;;13.62;82.30
43147;BME280;28752;48.266;7.402;2022-09-28T16:08:18;97785.88;;;13.40;83.44
43147;BME280;28752;48.266;7.402;2022-09-28T16:14:06;97804.69;;;13.45;83.91
43147;BME280;28752;48.266;7.402;2022-09-28T16:16:50;97813.66;;;13.37;83.91
43147;BME280;28752;48.266;7.402;2022-09-28T16:19:22;97810.63;;;13.33;83.88